EW3870 Weather Reports


Display with metric or nautical units.
time (UTC)temp
F
wind
direction
speed
MPH
gust
MPH
rain 1hr
in
rain 24hr
in
rain mn
in
humidity
%
barometer
mb
20181120234019 55 182 1.0 8.0 0.10 1.03 0.84 96 1017.6
20181120233019 55 136 3.0 9.0 0.10 1.01 0.83 96 1017.5
20181120232019 56 121 4.0 9.0 0.10 1.01 0.81 96 1017.5
20181120231019 56 120 5.0 8.0 0.11 0.99 0.80 96 1017.4
20181120230019 56 149 4.0 10.0 0.11 0.97 0.78 96 1017.2
20181120225019 56 138 7.0 12.0 0.11 0.95 0.76 96 1017.2
20181120224019 55 168 3.0 7.0 0.12 0.94 0.75 96 1017.3
20181120223019 55 138 2.0 6.0 0.13 0.92 0.73 96 1017.3
20181120222020 56 146 5.0 8.0 0.13 0.90 0.71 96 1017.3
20181120221019 56 158 6.0 9.0 0.12 0.87 0.68 96 1017.6
20181120220019 56 196 1.0 7.0 0.11 0.85 0.66 96 1017.4
20181120215019 56 125 2.0 9.0 0.11 0.83 0.64 96 1017.4
20181120214019 56 159 2.0 5.0 0.11 0.81 0.62 96 1017.4
20181120213019 56 143 2.0 6.0 0.10 0.78 0.59 96 1017.3
20181120212019 56 153 2.0 7.0 0.10 0.76 0.56 96 1017.3
20181120211019 56 141 2.0 4.0 0.10 0.74 0.55 96 1017.2
20181120210021 56 255 0.0 7.0 0.10 0.73 0.54 96 1017.1
20181120205019 57 154 2.0 4.0 0.10 0.71 0.52 95 1017.2
20181120204019 56 142 0.0 4.0 0.10 0.69 0.50 95 1017.2
20181120203019 56 224 2.0 5.0 0.09 0.67 0.48 95 1017.3
20181120202019 56 191 1.0 4.0 0.09 0.65 0.46 95 1017.4
20181120201019 56 119 1.0 5.0 0.09 0.63 0.43 95 1017.4
20181120200019 56 330 0.0 4.0 0.10 0.62 0.43 95 1017.4
20181120195019 56 206 1.0 4.0 0.10 0.60 0.40 95 1017.3
20181120194018 56 108 1.0 6.0 0.10 0.59 0.40 95 1017.2
20181120193018 56 254 1.0 5.0 0.11 0.58 0.39 95 1016.8
20181120192018 56 226 2.0 7.0 0.12 0.56 0.37 95 1017.0
20181120191019 56 133 5.0 8.0 0.12 0.54 0.35 95 1017.5
20181120190018 56 156 3.0 8.0 0.12 0.52 0.33 94 1017.7
20181120185018 56 151 4.0 9.0 0.12 0.50 0.31 94 1017.6
20181120184019 57 183 0.0 1.0 0.11 0.48 0.28 94 1018.1
20181120183019 57 152 1.0 8.0 0.11 0.46 0.27 94 1017.6
20181120182019 57 141 3.0 8.0 0.10 0.42 0.24 94 1018.0
20181120181018 57 126 0.0 4.0 0.10 0.40 0.21 94 1018.3
20181120180032 57 180 1.0 2.0 0.10 0.38 0.19 94 1018.4
20181120175018 57 0.0 2.0 0.09 0.36 0.18 93 1018.4
20181120174018 57 131 2.0 4.0 0.10 0.35 0.17 93 1018.5
20181120173019 58 135 1.0 5.0 0.09 0.33 0.15 93 1018.7
20181120172019 58 135 0.0 2.0 0.09 0.31 0.13 93 1018.6
20181120171019 58 167 0.0 2.0 0.10 0.30 0.12 93 1018.7
20181120170018 58 160 1.0 5.0 0.10 0.28 0.10 93 1018.6
20181120165018 58 144 2.0 4.0 0.10 0.27 0.09 92 1018.5
20181120164019 58 136 2.0 5.0 0.10 0.25 0.07 92 1018.5
20181120163020 58 174 2.0 6.0 0.11 0.24 0.06 92 1018.5
20181120162019 58 134 1.0 4.0 0.11 0.22 0.04 91 1018.6
20181120161018 58 129 1.0 4.0 0.11 0.20 0.02 91 1018.7
20181120160018 58 134 1.0 4.0 0.10 0.18 0.19 90 1018.9
20181120155021 58 139 1.0 4.0 0.10 0.16 0.17 90 1019.1
20181120154019 59 179 0.0 1.0 0.11 0.14 0.15 89 1019.2
20181120153019 59 133 0.0 1.0 0.11 0.12 0.13 88 1019.2
20181120152019 59 151 0.0 2.0 0.10 0.10 0.10 87 1019.2
20181120151019 60 144 1.0 4.0 0.09 0.09 0.09 86 1019.2
20181120150019 60 133 1.0 4.0 0.08 0.08 0.08 85 1019.1
20181120145019 61 131 1.0 3.0 0.06 0.06 0.05 83 1019.2
20181120144021 61 121 0.0 3.0 0.03 0.03 0.03 82 1019.3
20181120143020 61 255 1.0 3.0 0.01 0.01 0.01 80 1019.4
20181120142019 61 85 0.0 2.0 0.00 0.00 0.00 79 1019.2
20181120141019 61 152 0.0 2.0 0.00 0.00 0.00 78 1019.2
20181120140019 61 175 1.0 4.0 0.00 0.00 0.00 77 1019.1
20181120135019 61 138 4.0 9.0 0.00 0.00 0.00 77 1019.2
20181120134019 61 139 3.0 6.0 0.00 0.00 0.00 77 1019.1
20181120133019 61 171 1.0 5.0 0.00 0.00 0.00 77 1019.0
20181120132019 61 131 3.0 8.0 0.00 0.00 0.00 78 1019.2
20181120131019 61 157 3.0 7.0 0.00 0.00 0.00 78 1019.2
20181120130022 61 170 3.0 8.0 0.00 0.00 0.00 79 1019.3
20181120125019 61 143 4.0 8.0 0.00 0.00 0.00 80 1019.3
20181120124019 61 161 3.0 6.0 0.00 0.00 0.00 81 1019.4
20181120123019 61 145 2.0 7.0 0.00 0.00 0.00 82 1019.4
20181120122019 61 118 2.0 7.0 0.00 0.00 0.00 83 1019.5
20181120121018 61 146 3.0 6.0 0.00 0.00 0.00 83 1019.5
20181120120019 61 133 2.0 6.0 0.00 0.00 0.00 83 1019.6
20181120115019 61 130 4.0 8.0 0.00 0.00 0.00 83 1019.7
20181120114019 61 158 2.0 4.0 0.00 0.00 0.00 82 1019.6
20181120113019 61 147 3.0 6.0 0.00 0.00 0.00 83 1019.7
20181120112019 61 130 0.0 4.0 0.00 0.00 0.00 83 1019.8
20181120111018 61 134 2.0 4.0 0.00 0.00 0.00 83 1019.8
20181120110018 61 139 2.0 6.0 0.00 0.00 0.00 83 1019.7
20181120105018 61 98 1.0 3.0 0.00 0.00 0.00 83 1019.8
20181120104018 61 149 1.0 4.0 0.00 0.00 0.00 83 1019.9
20181120103019 61 143 1.0 3.0 0.00 0.00 0.00 83 1019.8
20181120102020 61 160 2.0 6.0 0.00 0.00 0.00 83 1019.8
20181120101018 61 158 1.0 3.0 0.00 0.00 0.00 82 1020.0
20181120100018 61 142 1.0 3.0 0.00 0.00 0.00 82 1020.0
20181120095018 61 159 2.0 6.0 0.00 0.00 0.00 82 1019.9
20181120094018 61 151 2.0 5.0 0.00 0.00 0.00 81 1019.9
20181120093018 61 150 0.0 6.0 0.00 0.00 0.00 81 1019.9
20181120092019 61 202 1.0 4.0 0.00 0.00 0.00 80 1020.0
20181120091018 62 169 1.0 4.0 0.00 0.00 0.00 80 1019.9
20181120090018 62 158 3.0 7.0 0.00 0.00 0.00 79 1019.9
20181120085018 62 175 1.0 4.0 0.00 0.00 0.00 79 1019.9
20181120084018 62 199 2.0 4.0 0.00 0.00 0.00 78 1019.9
20181120083018 62 146 0.0 4.0 0.00 0.00 0.00 78 1019.8
20181120082021 62 141 1.0 4.0 0.00 0.00 0.00 78 1019.7
20181120081019 62 139 0.0 4.0 0.00 0.00 0.00 78 1019.5
20181120080018 62 219 2.0 7.0 0.00 0.00 0.00 77 1019.5
20181120075019 62 152 2.0 7.0 0.00 0.00 0.00 76 1019.5
20181120074018 62 149 1.0 5.0 0.00 0.00 0.00 76 1019.3
20181120073018 62 175 3.0 8.0 0.00 0.00 0.00 76 1019.2
20181120072020 62 143 4.0 11.0 0.00 0.00 0.00 75 1019.0
20181120071020 62 178 3.0 7.0 0.00 0.00 0.00 75 1018.6
20181120070018 63 151 4.0 9.0 0.00 0.00 0.00 74 1017.9
20181120065018 63 156 5.0 9.0 0.00 0.00 0.00 75 1017.8
20181120064018 62 128 4.0 8.0 0.00 0.00 0.00 75 1018.2
20181120063018 63 135 4.0 11.0 0.00 0.00 0.00 75 1018.8
20181120062018 63 154 4.0 10.0 0.00 0.00 0.00 74 1019.0
20181120061018 63 147 6.0 10.0 0.00 0.00 0.00 73 1019.2
20181120060021 63 48 0.0 5.0 0.00 0.00 0.00 73 1019.4
20181120055018 63 146 4.0 12.0 0.00 0.00 0.00 73 1019.5
20181120054018 63 145 5.0 11.0 0.00 0.00 0.00 72 1019.7
20181120053018 63 105 3.0 8.0 0.00 0.00 0.00 72 1019.7
20181120052018 63 145 6.0 10.0 0.00 0.00 0.00 72 1019.7
20181120051019 63 142 4.0 9.0 0.00 0.00 0.00 72 1019.9
20181120050020 63 118 6.0 9.0 0.00 0.00 0.00 73 1020.1
20181120045020 62 151 1.0 7.0 0.00 0.00 0.00 72 1020.3
20181120044020 62 162 5.0 10.0 0.00 0.00 0.00 72 1020.4
20181120043020 63 136 4.0 9.0 0.00 0.00 0.00 71 1020.6
20181120042020 63 135 4.0 9.0 0.00 0.00 0.00 71 1020.7
20181120041020 63 173 2.0 7.0 0.00 0.00 0.00 71 1020.8
20181120040020 62 196 3.0 8.0 0.00 0.00 0.00 70 1021.0
20181120035018 63 132 6.0 11.0 0.00 0.00 0.00 69 1021.1
20181120034018 63 153 4.0 10.0 0.00 0.00 0.00 68 1021.3
20181120033019 64 142 3.0 10.0 0.00 0.00 0.00 69 1021.6
20181120032019 63 202 3.0 9.0 0.00 0.00 0.00 70 1021.8
20181120031019 63 182 4.0 13.0 0.00 0.00 0.00 70 1021.9
20181120030020 62 154 2.0 8.0 0.00 0.00 0.00 71 1022.3
20181120025019 62 205 2.0 6.0 0.00 0.00 0.00 72 1022.4
20181120024019 62 159 6.0 8.0 0.00 0.00 0.00 72 1022.5
20181120023020 61 133 3.0 6.0 0.00 0.00 0.00 73 1022.7
20181120022020 61 143 0.0 4.0 0.00 0.00 0.00 74 1022.9
20181120021020 60 276 2.0 4.0 0.00 0.00 0.00 75 1023.0
20181120020019 59 150 0.0 3.0 0.00 0.00 0.00 76 1023.0
20181120015020 59 334 2.0 5.0 0.00 0.00 0.00 77 1023.2
20181120014019 58 52 0.0 2.0 0.00 0.00 0.00 77 1023.4
20181120013020 58 51 0.0 1.0 0.00 0.00 0.00 78 1023.5
20181120012020 57 89 0.0 3.0 0.00 0.00 0.00 78 1023.6
20181120011019 56 45 1.0 4.0 0.00 0.00 0.00 79 1023.5
20181120010019 56 327 1.0 3.0 0.00 0.00 0.00 81 1023.3
20181120005019 55 15 1.0 3.0 0.00 0.00 0.00 81 1023.4
20181120004019 55 25 1.0 2.0 0.00 0.00 0.00 82 1023.7
20181120003019 54 21 1.0 3.0 0.00 0.00 0.00 83 1023.4
20181120002019 54 28 2.0 5.0 0.00 0.00 0.00 84 1023.3
20181120001020 53 312 1.0 3.0 0.00 0.00 0.00 85 1023.2
20181120000019 52 358 0.0 4.0 0.00 0.00 0.00 87 1022.8
20181119235019 52 4 3.0 5.0 0.00 0.00 0.00 89 1022.8